createdAt,value
2023-05-21T00:01:49.858Z,101697.88
2023-05-21T00:03:51.561Z,101704.63
2023-05-21T00:05:53.291Z,101696.38
2023-05-21T00:07:54.937Z,101681.09
2023-05-21T00:09:56.508Z,101696.38
2023-05-21T00:11:58.018Z,101700.41
2023-05-21T00:13:59.564Z,101700.25
2023-05-21T00:16:01.061Z,101702.28
2023-05-21T00:18:02.945Z,101703.81
2023-05-21T00:20:04.982Z,101702.19
2023-05-21T00:22:06.454Z,101700.84
2023-05-21T00:24:08.208Z,101687.28
2023-05-21T00:26:09.821Z,101709.97
2023-05-21T00:28:11.484Z,101708.28
2023-05-21T00:30:13.196Z,101701.56
2023-05-21T00:32:14.828Z,101700.19
2023-05-21T00:34:16.872Z,101693.56
2023-05-21T00:36:18.382Z,101701.78
2023-05-21T00:38:20.116Z,101705.13
2023-05-21T00:40:22.200Z,101701.88
2023-05-21T00:42:23.848Z,101688.50
2023-05-21T00:44:25.525Z,101675.16
2023-05-21T00:46:27.332Z,101684.19
2023-05-21T00:48:28.983Z,101700.22
2023-05-21T00:50:31.159Z,101701.69
2023-05-21T00:52:32.869Z,101691.75
2023-05-21T00:54:34.535Z,101701.59
2023-05-21T00:56:36.539Z,101660.66
2023-05-21T00:58:39.818Z,101695.47
2023-05-21T01:00:41.586Z,101703.25
2023-05-21T01:02:43.675Z,101704.84
2023-05-21T01:04:45.714Z,101697.56
2023-05-21T01:06:47.355Z,101693.25
2023-05-21T01:08:49.254Z,101706.06
2023-05-21T01:10:51.628Z,101700.75
2023-05-21T01:12:55.821Z,101704.16
2023-05-21T01:14:59.300Z,101704.59
2023-05-21T01:17:01.601Z,101703.22
2023-05-21T01:19:04.978Z,101699.97
2023-05-21T01:21:06.872Z,101702.00
2023-05-21T01:23:08.527Z,101691.06
2023-05-21T01:25:10.792Z,101700.06
2023-05-21T01:27:12.326Z,101663.78
2023-05-21T01:29:14.776Z,101701.19
2023-05-21T01:31:57.236Z,101699.78
2023-05-21T01:34:01.347Z,101703.19
2023-05-21T01:36:09.247Z,101701.09
2023-05-21T01:38:31.412Z,101699.00
2023-05-21T01:40:53.143Z,101704.22
2023-05-21T01:42:54.712Z,101700.13
2023-05-21T01:44:59.083Z,101694.53
2023-05-21T01:47:02.495Z,101682.63
2023-05-21T01:49:06.105Z,101686.81
2023-05-21T01:51:07.690Z,101657.69
2023-05-21T01:53:09.411Z,101691.16
2023-05-21T01:55:10.838Z,101690.06
2023-05-21T01:57:12.400Z,101686.97
2023-05-21T01:59:14.033Z,101691.88
2023-05-21T02:01:15.482Z,101693.28
2023-05-21T02:03:18.304Z,101682.03
2023-05-21T02:05:20.000Z,101693.38
2023-05-21T02:07:21.430Z,101677.56
2023-05-21T02:09:23.044Z,101683.75
2023-05-21T02:11:24.648Z,101690.56
2023-05-21T02:13:26.875Z,101688.75
2023-05-21T02:15:28.667Z,101691.56
2023-05-21T02:17:30.287Z,101672.63
2023-05-21T02:19:31.774Z,101693.56
2023-05-21T02:21:33.330Z,101678.25
2023-05-21T02:23:34.940Z,101688.50
2023-05-21T02:25:36.776Z,101686.66
2023-05-21T02:27:39.449Z,101676.16
2023-05-21T02:29:40.971Z,101682.88
2023-05-21T02:31:42.471Z,101681.59
2023-05-21T02:33:44.163Z,101689.88
2023-05-21T02:35:45.722Z,101671.38
2023-05-21T02:37:47.282Z,101678.09
2023-05-21T02:39:48.929Z,101676.44
2023-05-21T02:41:50.536Z,101653.69
2023-05-21T02:43:51.983Z,101677.56
2023-05-21T02:45:53.640Z,101669.97
2023-05-21T02:47:55.397Z,101649.22
2023-05-21T02:50:00.070Z,101680.06
2023-05-21T02:52:01.931Z,101658.16
2023-05-21T02:54:03.982Z,101662.38
2023-05-21T02:56:05.769Z,101653.69
2023-05-21T02:58:07.386Z,101662.94
2023-05-21T03:00:09.594Z,101672.47
2023-05-21T03:02:11.187Z,101664.34
2023-05-21T03:04:12.794Z,101650.88
2023-05-21T03:06:14.496Z,101663.78
2023-05-21T03:08:15.929Z,101647.38
2023-05-21T03:10:17.502Z,101660.00
2023-05-21T03:12:19.120Z,101670.25
2023-05-21T03:14:20.557Z,101663.38
2023-05-21T03:16:22.151Z,101665.09
2023-05-21T03:18:24.342Z,101643.78
2023-05-21T03:20:25.841Z,101663.28
2023-05-21T03:22:27.459Z,101641.13
2023-05-21T03:24:29.802Z,101666.63
2023-05-21T03:26:31.788Z,101664.78
2023-05-21T03:28:33.355Z,101654.28
2023-05-21T03:30:35.033Z,101669.88
2023-05-21T03:32:36.600Z,101668.03
2023-05-21T03:34:38.136Z,101669.97
2023-05-21T03:36:39.669Z,101649.09
2023-05-21T03:38:41.125Z,101623.16
2023-05-21T03:40:42.692Z,101671.75
2023-05-21T03:42:44.980Z,101654.34
2023-05-21T03:44:46.401Z,101666.28
2023-05-21T03:46:47.927Z,101657.69
2023-05-21T03:48:49.870Z,101672.22
2023-05-21T03:50:51.367Z,101670.25
2023-05-21T03:52:53.054Z,101669.50
2023-05-21T03:54:54.745Z,101679.16
2023-05-21T03:56:56.206Z,101677.81
2023-05-21T03:58:57.636Z,101672.84
2023-05-21T04:00:59.275Z,101675.25
2023-05-21T04:03:00.775Z,101676.78
2023-05-21T04:05:02.628Z,101641.81
2023-05-21T04:07:04.494Z,101668.25
2023-05-21T04:09:05.940Z,101663.59
2023-05-21T04:11:07.486Z,101638.94
2023-05-21T04:13:09.107Z,101664.47
2023-05-21T04:15:10.913Z,101635.53
2023-05-21T04:17:12.488Z,101648.16
2023-05-21T04:19:14.641Z,101664.78
2023-05-21T04:21:16.123Z,101660.41
2023-05-21T04:23:17.637Z,101661.91
2023-05-21T04:25:19.354Z,101666.19
2023-05-21T04:27:21.848Z,101671.44
2023-05-21T04:29:23.980Z,101658.84
2023-05-21T04:31:25.615Z,101654.94
2023-05-21T04:33:27.098Z,101652.16
2023-05-21T04:35:30.541Z,101636.84
2023-05-21T04:37:32.093Z,101664.78
2023-05-21T04:39:33.563Z,101648.59
2023-05-21T04:41:35.077Z,101655.31
2023-05-21T04:43:36.614Z,101653.44
2023-05-21T04:45:38.292Z,101657.81
2023-05-21T04:47:40.296Z,101626.84
2023-05-21T04:49:42.077Z,101655.44
2023-05-21T04:51:43.533Z,101640.41
2023-05-21T04:53:45.058Z,101661.00
2023-05-21T04:55:46.587Z,101647.78
2023-05-21T04:57:48.198Z,101645.50
2023-05-21T04:59:49.824Z,101642.91
2023-05-21T05:01:51.349Z,101648.44
2023-05-21T05:03:53.572Z,101659.09
2023-05-21T05:05:55.709Z,101653.16
2023-05-21T05:07:57.296Z,101650.47
2023-05-21T05:09:58.740Z,101654.56
2023-05-21T05:12:00.193Z,101654.19
2023-05-21T05:14:01.832Z,101657.50
2023-05-21T05:16:03.429Z,101650.22
2023-05-21T05:18:05.044Z,101650.69
2023-05-21T05:20:10.783Z,101658.94
2023-05-21T05:22:13.505Z,101663.25
2023-05-21T05:24:15.332Z,101661.63
2023-05-21T05:26:16.938Z,101650.88
2023-05-21T05:28:18.534Z,101672.16
2023-05-21T05:30:20.674Z,101665.22
2023-05-21T05:32:22.498Z,101665.69
2023-05-21T05:34:24.042Z,101662.56
2023-05-21T05:36:25.554Z,101661.66
2023-05-21T05:38:27.313Z,101657.28
2023-05-21T05:40:28.894Z,101664.47
2023-05-21T05:42:30.478Z,101672.91
2023-05-21T05:44:32.023Z,101668.25
2023-05-21T05:46:33.510Z,101665.81
2023-05-21T05:48:35.152Z,101667.22
2023-05-21T05:50:36.791Z,101665.75
2023-05-21T05:52:38.223Z,101651.81
2023-05-21T05:54:40.021Z,101661.31
2023-05-21T05:56:41.567Z,101631.22
2023-05-21T05:58:43.008Z,101659.13
2023-05-21T06:00:44.688Z,101636.06
2023-05-21T06:02:46.326Z,101646.97
2023-05-21T06:04:47.858Z,101647.19
2023-05-21T06:06:49.397Z,101639.97
2023-05-21T06:08:51.108Z,101645.25
2023-05-21T06:10:52.644Z,101630.81
2023-05-21T06:12:54.095Z,101650.94
2023-05-21T06:14:55.609Z,101647.16
2023-05-21T06:16:57.064Z,101651.47
2023-05-21T06:18:58.682Z,101637.41
2023-05-21T06:21:00.328Z,101638.53
2023-05-21T06:23:01.792Z,101635.06
2023-05-21T06:25:03.662Z,101651.44
2023-05-21T06:27:05.399Z,101651.75
2023-05-21T06:29:06.864Z,101642.75
2023-05-21T06:31:08.485Z,101641.16
2023-05-21T06:33:10.312Z,101629.72
2023-05-21T06:35:11.811Z,101647.88
2023-05-21T06:37:13.560Z,101640.59
2023-05-21T06:39:15.224Z,101649.28
2023-05-21T06:41:16.707Z,101641.00
2023-05-21T06:43:18.263Z,101651.91
2023-05-21T06:45:20.463Z,101661.69
2023-05-21T06:47:21.939Z,101655.88
2023-05-21T06:49:23.585Z,101647.16
2023-05-21T06:51:25.152Z,101643.81
2023-05-21T06:53:26.634Z,101648.28
2023-05-21T06:55:28.086Z,101640.63
2023-05-21T06:57:30.208Z,101628.69
2023-05-21T06:59:31.641Z,101639.03
2023-05-21T07:01:33.256Z,101642.28
2023-05-21T07:03:36.602Z,101648.38
2023-05-21T07:05:38.387Z,101649.22
2023-05-21T07:07:40.298Z,101652.28
2023-05-21T07:09:41.971Z,101645.53
2023-05-21T07:11:43.469Z,101636.41
2023-05-21T07:13:45.127Z,101625.63
2023-05-21T07:15:46.820Z,101635.84
2023-05-21T07:17:48.295Z,101625.97
2023-05-21T07:19:49.855Z,101614.38
2023-05-21T07:21:51.404Z,101632.75
2023-05-21T07:23:52.889Z,101632.53
2023-05-21T07:25:54.517Z,101639.03
2023-05-21T07:27:56.052Z,101615.16
2023-05-21T07:29:57.518Z,101626.00
2023-05-21T07:31:58.987Z,101634.75
2023-05-21T07:34:00.588Z,101634.63
2023-05-21T07:36:02.038Z,101611.66
2023-05-21T07:38:03.534Z,101634.16
2023-05-21T07:40:05.818Z,101619.22
2023-05-21T07:42:07.302Z,101611.28
2023-05-21T07:44:08.846Z,101626.13
2023-05-21T07:46:10.523Z,101626.28
2023-05-21T07:48:12.127Z,101628.44
2023-05-21T07:50:14.638Z,101623.38
2023-05-21T07:52:16.246Z,101625.03
2023-05-21T07:54:17.810Z,101614.25
2023-05-21T07:56:19.263Z,101623.53
2023-05-21T07:58:20.793Z,101618.91
2023-05-21T08:00:23.842Z,101623.47
2023-05-21T08:02:25.437Z,101604.25
2023-05-21T08:04:27.156Z,101612.09
2023-05-21T08:06:28.727Z,101616.50
2023-05-21T08:08:30.446Z,101615.13
2023-05-21T08:10:32.134Z,101618.63
2023-05-21T08:12:33.585Z,101621.59
2023-05-21T08:14:35.070Z,101617.59
2023-05-21T08:16:36.717Z,101619.91
2023-05-21T08:18:38.216Z,101620.50
2023-05-21T08:20:39.873Z,101620.63
2023-05-21T08:22:41.994Z,101603.56
2023-05-21T08:24:43.494Z,101594.22
2023-05-21T08:26:44.953Z,101612.47
2023-05-21T08:28:46.709Z,101612.38
2023-05-21T08:30:48.174Z,101616.34
2023-05-21T08:32:50.060Z,101619.06
2023-05-21T08:34:51.694Z,101610.97
2023-05-21T08:36:53.136Z,101599.56
2023-05-21T08:38:55.759Z,101595.88
2023-05-21T08:40:58.820Z,101612.31
2023-05-21T08:43:01.117Z,101610.44
2023-05-21T08:45:05.335Z,101604.56
2023-05-21T08:47:07.897Z,101612.25
2023-05-21T08:49:12.822Z,101608.81
2023-05-21T08:51:14.328Z,101612.78
2023-05-21T08:53:27.469Z,101607.28
2023-05-21T08:55:31.916Z,101584.91
2023-05-21T08:57:33.558Z,101606.00
2023-05-21T08:59:35.501Z,101604.66
2023-05-21T09:01:37.210Z,101611.44
2023-05-21T09:03:40.872Z,101604.88
2023-05-21T09:05:43.524Z,101612.47
2023-05-21T09:07:59.538Z,101603.88
2023-05-21T09:10:07.487Z,101605.22
2023-05-21T09:12:09.597Z,101611.41
2023-05-21T09:14:11.522Z,101603.25
2023-05-21T09:16:13.025Z,101604.66
2023-05-21T09:18:14.947Z,101607.84
2023-05-21T09:20:16.781Z,101597.25
2023-05-21T09:22:23.559Z,101595.47
2023-05-21T09:24:25.195Z,101597.16
2023-05-21T09:26:27.001Z,101580.44
2023-05-21T09:28:29.600Z,101592.47
2023-05-21T09:30:32.586Z,101573.22
2023-05-21T09:32:36.572Z,101582.94
2023-05-21T09:34:38.041Z,101577.84
2023-05-21T09:36:39.642Z,101582.13
2023-05-21T09:38:41.339Z,101573.00
2023-05-21T09:40:45.963Z,101585.00
2023-05-21T09:42:49.651Z,101598.31
2023-05-21T09:44:51.175Z,101587.97
2023-05-21T09:46:57.291Z,101572.59
2023-05-21T09:48:58.930Z,101585.88
2023-05-21T09:51:17.222Z,101591.00
2023-05-21T09:53:18.683Z,101572.44
2023-05-21T09:55:23.331Z,101576.41
2023-05-21T09:57:27.970Z,101581.88
2023-05-21T09:59:39.213Z,101578.44
2023-05-21T10:01:41.098Z,101563.84
2023-05-21T10:03:48.174Z,101564.75
2023-05-21T10:05:55.142Z,101575.34
2023-05-21T10:08:01.284Z,101580.44
2023-05-21T10:10:04.393Z,101565.28
2023-05-21T10:12:07.538Z,101567.13
2023-05-21T10:14:19.763Z,101566.78
2023-05-21T10:16:22.094Z,101570.25
2023-05-21T10:18:24.642Z,101569.84
2023-05-21T10:20:26.484Z,101577.50
2023-05-21T10:22:28.288Z,101566.09
2023-05-21T10:24:30.046Z,101560.00
2023-05-21T10:26:31.750Z,101556.41
2023-05-21T10:28:33.844Z,101554.00
2023-05-21T10:30:37.101Z,101550.00
2023-05-21T10:32:40.365Z,101559.00
2023-05-21T10:34:43.893Z,101545.66
2023-05-21T10:36:46.149Z,101548.34
2023-05-21T10:38:48.223Z,101554.91
2023-05-21T10:40:50.074Z,101552.69
2023-05-21T10:42:51.479Z,101539.78
2023-05-21T10:45:11.118Z,101554.53
2023-05-21T10:47:40.488Z,101544.00
2023-05-21T10:50:06.379Z,101546.09
2023-05-21T10:52:38.505Z,101544.72
2023-05-21T10:54:58.750Z,101551.66
2023-05-21T10:57:21.608Z,101545.28
2023-05-21T10:59:45.386Z,101549.56
2023-05-21T11:01:48.482Z,101542.69
2023-05-21T11:03:50.514Z,101540.59
2023-05-21T11:05:54.536Z,101534.13
2023-05-21T11:07:59.863Z,101544.22
2023-05-21T11:10:37.700Z,101535.56
2023-05-21T11:13:10.584Z,101537.69
2023-05-21T11:15:15.768Z,101520.25
2023-05-21T11:17:37.086Z,101536.69
2023-05-21T11:19:39.513Z,101534.41
2023-05-21T11:21:41.047Z,101514.38
2023-05-21T11:23:51.617Z,101531.47
2023-05-21T11:26:02.227Z,101526.38
2023-05-21T11:28:06.661Z,101514.09
2023-05-21T11:30:18.959Z,101516.72
2023-05-21T11:32:20.437Z,101511.41
2023-05-21T11:34:23.756Z,101514.13
2023-05-21T11:36:25.206Z,101514.47
2023-05-21T11:38:31.422Z,101507.97
2023-05-21T11:40:32.931Z,101518.13
2023-05-21T11:42:38.592Z,101517.06
2023-05-21T11:44:49.957Z,101524.34
2023-05-21T11:46:51.983Z,101505.19
2023-05-21T11:48:54.900Z,101517.81
2023-05-21T11:50:56.756Z,101516.22
2023-05-21T11:52:59.495Z,101513.69
2023-05-21T11:55:01.162Z,101492.81
2023-05-21T11:57:06.031Z,101502.94
2023-05-21T11:59:16.012Z,101502.22
2023-05-21T12:01:23.164Z,101508.13
2023-05-21T12:03:24.928Z,101489.59
2023-05-21T12:05:26.449Z,101506.72
2023-05-21T12:07:28.765Z,101510.25
2023-05-21T12:09:30.339Z,101496.72
2023-05-21T12:11:31.902Z,101508.25
2023-05-21T12:13:33.376Z,101500.72
2023-05-21T12:15:35.240Z,101494.56
2023-05-21T12:17:36.740Z,101505.91
2023-05-21T12:19:38.464Z,101503.19
2023-05-21T12:21:39.918Z,101485.91
2023-05-21T12:23:41.454Z,101497.81
2023-05-21T12:25:42.989Z,101477.44
2023-05-21T12:27:44.565Z,101504.16
2023-05-21T12:29:49.198Z,101488.00
2023-05-21T12:31:50.783Z,101496.44
2023-05-21T12:33:52.446Z,101497.53
2023-05-21T12:35:53.936Z,101465.00
2023-05-21T12:37:55.480Z,101469.69
2023-05-21T12:39:59.919Z,101474.41
2023-05-21T12:42:02.402Z,101482.22
2023-05-21T12:44:04.288Z,101490.41
2023-05-21T12:46:05.919Z,101485.19
2023-05-21T12:48:07.635Z,101461.22
2023-05-21T12:50:09.800Z,101477.94
2023-05-21T12:52:12.816Z,101480.34
2023-05-21T12:54:14.367Z,101481.28
2023-05-21T12:56:16.175Z,101480.97
2023-05-21T12:58:22.121Z,101469.72
2023-05-21T13:00:23.993Z,101447.03
2023-05-21T13:02:31.755Z,101452.81
2023-05-21T13:04:36.523Z,101462.38
2023-05-21T13:06:44.287Z,101448.00
2023-05-21T13:08:45.998Z,101457.91
2023-05-21T13:10:47.591Z,101460.41
2023-05-21T13:12:49.062Z,101457.59
2023-05-21T13:14:53.090Z,101462.84
2023-05-21T13:16:55.065Z,101462.09
2023-05-21T13:18:56.550Z,101460.47
2023-05-21T13:20:58.122Z,101443.06
2023-05-21T13:22:59.764Z,101458.25
2023-05-21T13:25:02.365Z,101457.31
2023-05-21T13:27:03.892Z,101450.25
2023-05-21T13:29:05.547Z,101453.28
2023-05-21T13:31:06.983Z,101449.59
2023-05-21T13:33:08.551Z,101446.03
2023-05-21T13:35:10.837Z,101452.53
2023-05-21T13:37:12.288Z,101446.34
2023-05-21T13:39:13.960Z,101453.44
2023-05-21T13:41:15.675Z,101448.44
2023-05-21T13:43:17.109Z,101453.44
2023-05-21T13:45:20.242Z,101453.66
2023-05-21T13:47:21.946Z,101450.38
2023-05-21T13:49:23.385Z,101446.50
2023-05-21T13:51:38.047Z,101440.13
2023-05-21T13:53:41.066Z,101447.72
2023-05-21T13:55:42.568Z,101413.72
2023-05-21T13:57:44.803Z,101441.09
2023-05-21T13:59:46.513Z,101440.00
2023-05-21T14:01:48.772Z,101425.38
2023-05-21T14:03:50.498Z,101438.50
2023-05-21T14:05:52.109Z,101435.56
2023-05-21T14:07:53.612Z,101434.88
2023-05-21T14:09:55.090Z,101431.50
2023-05-21T14:11:57.644Z,101435.50
2023-05-21T14:13:59.208Z,101428.06
2023-05-21T14:16:00.827Z,101409.94
2023-05-21T14:18:02.423Z,101413.25
2023-05-21T14:20:04.145Z,101409.47
2023-05-21T14:22:05.678Z,101426.75
2023-05-21T14:24:07.219Z,101413.84
2023-05-21T14:26:08.862Z,101417.41
2023-05-21T14:28:10.316Z,101417.28
2023-05-21T14:30:12.176Z,101416.09
2023-05-21T14:32:13.804Z,101403.94
2023-05-21T14:34:15.297Z,101416.09
2023-05-21T14:36:17.362Z,101414.81
2023-05-21T14:38:18.909Z,101414.00
2023-05-21T14:40:20.711Z,101403.78
2023-05-21T14:42:22.764Z,101418.50
2023-05-21T14:44:24.375Z,101411.13
2023-05-21T14:46:25.879Z,101409.13
2023-05-21T14:48:27.562Z,101419.78
2023-05-21T14:50:29.131Z,101407.72
2023-05-21T14:52:30.574Z,101408.88
2023-05-21T14:54:32.106Z,101415.28
2023-05-21T14:56:33.730Z,101402.09
2023-05-21T14:58:35.203Z,101401.34
2023-05-21T15:00:37.582Z,101413.66
2023-05-21T15:02:39.347Z,101392.44
2023-05-21T15:04:40.853Z,101399.47
2023-05-21T15:06:42.542Z,101408.44
2023-05-21T15:08:44.112Z,101404.59
2023-05-21T15:10:45.561Z,101405.44
2023-05-21T15:12:47.348Z,101403.63
2023-05-21T15:14:48.811Z,101417.72
2023-05-21T15:16:50.505Z,101410.13
2023-05-21T15:18:53.481Z,101383.34
2023-05-21T15:20:54.985Z,101410.78
2023-05-21T15:23:05.019Z,101405.72
2023-05-21T15:25:17.529Z,101394.34
2023-05-21T15:27:19.210Z,101407.88
2023-05-21T15:29:20.844Z,101402.44
2023-05-21T15:31:22.689Z,101382.88
2023-05-21T15:33:24.348Z,101379.38
2023-05-21T15:35:25.911Z,101391.59
2023-05-21T15:37:27.586Z,101395.03
2023-05-21T15:39:30.355Z,101386.03
2023-05-21T15:41:35.637Z,101391.91
2023-05-21T15:43:37.241Z,101386.50
2023-05-21T15:45:39.494Z,101372.44
2023-05-21T15:47:42.714Z,101378.41
2023-05-21T15:49:44.679Z,101359.78
2023-05-21T15:51:48.944Z,101379.16
2023-05-21T15:53:50.421Z,101361.16
2023-05-21T15:55:52.018Z,101362.59
2023-05-21T15:57:53.461Z,101373.19
2023-05-21T15:59:55.196Z,101373.19
2023-05-21T16:01:56.866Z,101380.31
2023-05-21T16:03:58.403Z,101372.16
2023-05-21T16:05:59.942Z,101356.69
2023-05-21T16:08:01.619Z,101368.66
2023-05-21T16:10:03.203Z,101363.81
2023-05-21T16:12:04.930Z,101381.06
2023-05-21T16:14:07.052Z,101380.88
2023-05-21T16:16:08.539Z,101373.44
2023-05-21T16:18:10.112Z,101378.19
2023-05-21T16:20:12.403Z,101376.81
2023-05-21T16:22:13.862Z,101367.94
2023-05-21T16:24:15.966Z,101370.34
2023-05-21T16:26:17.951Z,101375.81
2023-05-21T16:28:20.937Z,101377.97
2023-05-21T16:30:22.516Z,101375.91
2023-05-21T16:32:24.324Z,101369.75
2023-05-21T16:34:25.873Z,101376.69
2023-05-21T16:36:27.329Z,101375.75
2023-05-21T16:38:28.858Z,101377.81
2023-05-21T16:40:30.298Z,101373.72
2023-05-21T16:42:31.769Z,101374.59
2023-05-21T16:44:33.232Z,101373.94
2023-05-21T16:46:34.703Z,101379.44
2023-05-21T16:48:38.046Z,101361.38
2023-05-21T16:50:40.177Z,101367.69
2023-05-21T16:52:41.659Z,101366.72
2023-05-21T16:54:45.796Z,101347.19
2023-05-21T16:56:47.485Z,101362.47
2023-05-21T16:58:48.928Z,101366.31
2023-05-21T17:00:50.549Z,101358.13
2023-05-21T17:02:53.281Z,101365.13
2023-05-21T17:04:54.785Z,101357.94
2023-05-21T17:06:56.696Z,101342.47
2023-05-21T17:08:58.357Z,101351.66
2023-05-21T17:11:00.083Z,101357.03
2023-05-21T17:13:09.735Z,101357.22
2023-05-21T17:15:19.673Z,101367.50
2023-05-21T17:17:21.111Z,101353.38
2023-05-21T17:19:23.008Z,101339.94
2023-05-21T17:21:24.934Z,101361.84
2023-05-21T17:23:26.386Z,101364.31
2023-05-21T17:25:28.034Z,101362.19
2023-05-21T17:27:29.646Z,101363.91
2023-05-21T17:29:31.689Z,101368.94
2023-05-21T17:31:33.507Z,101369.56
2023-05-21T17:33:36.989Z,101365.44
2023-05-21T17:35:38.783Z,101367.53
2023-05-21T17:37:40.584Z,101362.13
2023-05-21T17:39:42.211Z,101361.53
2023-05-21T17:41:43.736Z,101359.53
2023-05-21T17:43:45.717Z,101337.06
2023-05-21T17:45:47.288Z,101362.63
2023-05-21T17:47:48.804Z,101361.78
2023-05-21T17:49:50.650Z,101365.78
2023-05-21T17:51:52.872Z,101361.00
2023-05-21T17:53:54.341Z,101360.16
2023-05-21T17:55:55.879Z,101360.59
2023-05-21T17:57:57.330Z,101358.09
2023-05-21T17:59:58.806Z,101336.66
2023-05-21T18:02:00.333Z,101358.91
2023-05-21T18:04:03.309Z,101348.53
2023-05-21T18:06:06.411Z,101355.81
2023-05-21T18:08:08.994Z,101347.09
2023-05-21T18:10:11.001Z,101355.84
2023-05-21T18:12:12.443Z,101346.50
2023-05-21T18:14:14.035Z,101357.75
2023-05-21T18:16:16.741Z,101356.47
2023-05-21T18:18:21.341Z,101359.59
2023-05-21T18:20:23.676Z,101340.66
2023-05-21T18:22:25.306Z,101358.53
2023-05-21T18:24:26.780Z,101363.28
2023-05-21T18:26:28.407Z,101350.38
2023-05-21T18:28:32.275Z,101359.25
2023-05-21T18:30:34.412Z,101354.47
2023-05-21T18:32:36.202Z,101370.03
2023-05-21T18:34:37.716Z,101366.28
2023-05-21T18:36:39.177Z,101373.31
2023-05-21T18:38:40.770Z,101372.47
2023-05-21T18:40:42.477Z,101380.69
2023-05-21T18:42:43.940Z,101370.88
2023-05-21T18:44:45.501Z,101379.53
2023-05-21T18:46:46.987Z,101362.00
2023-05-21T18:48:48.504Z,101370.88
2023-05-21T18:50:50.160Z,101348.56
2023-05-21T18:52:53.260Z,101377.47
2023-05-21T18:54:54.851Z,101385.81
2023-05-21T18:56:56.298Z,101391.38
2023-05-21T18:58:57.825Z,101380.91
2023-05-21T19:00:59.351Z,101345.41
2023-05-21T19:03:00.946Z,101371.97
2023-05-21T19:05:02.841Z,101395.06
2023-05-21T19:07:04.495Z,101400.25
2023-05-21T19:09:06.211Z,101399.19
2023-05-21T19:11:08.138Z,101398.72
2023-05-21T19:13:09.730Z,101401.75
2023-05-21T19:15:11.748Z,101391.31
2023-05-21T19:17:13.550Z,101397.50
2023-05-21T19:19:15.033Z,101361.03
2023-05-21T19:21:16.946Z,101374.59
2023-05-21T19:23:18.663Z,101397.03
2023-05-21T19:25:20.375Z,101390.63
2023-05-21T19:27:22.167Z,101379.13
2023-05-21T19:29:24.037Z,101396.56
2023-05-21T19:31:25.535Z,101393.56
2023-05-21T19:33:27.528Z,101394.72
2023-05-21T19:35:29.100Z,101389.03
2023-05-21T19:37:30.545Z,101398.13
2023-05-21T19:39:43.479Z,101399.81
2023-05-21T19:41:45.045Z,101392.13
2023-05-21T19:43:46.645Z,101379.81
2023-05-21T19:45:48.189Z,101393.16
2023-05-21T19:47:49.685Z,101391.72
2023-05-21T19:49:51.183Z,101383.78
2023-05-21T19:51:53.084Z,101396.50
2023-05-21T19:53:54.510Z,101383.88
2023-05-21T19:55:55.962Z,101391.00
2023-05-21T19:57:57.715Z,101379.81
2023-05-21T19:59:59.295Z,101374.63
2023-05-21T20:02:00.752Z,101383.72
2023-05-21T20:04:02.327Z,101383.03
2023-05-21T20:06:04.025Z,101388.41
2023-05-21T20:08:05.511Z,101382.78
2023-05-21T20:10:07.657Z,101389.75
2023-05-21T20:12:09.218Z,101381.97
2023-05-21T20:14:10.789Z,101371.53
2023-05-21T20:16:12.373Z,101365.22
2023-05-21T20:18:13.882Z,101369.81
2023-05-21T20:20:15.753Z,101377.78
2023-05-21T20:22:17.309Z,101364.31
2023-05-21T20:24:18.750Z,101358.25
2023-05-21T20:26:20.262Z,101366.66
2023-05-21T20:28:22.865Z,101360.16
2023-05-21T20:30:31.934Z,101374.03
2023-05-21T20:32:33.444Z,101370.28
2023-05-21T20:34:34.980Z,101370.28
2023-05-21T20:36:36.856Z,101372.94
2023-05-21T20:38:38.415Z,101363.97
2023-05-21T20:40:40.070Z,101358.47
2023-05-21T20:42:41.640Z,101377.63
2023-05-21T20:44:43.099Z,101357.94
2023-05-21T20:46:44.855Z,101381.59
2023-05-21T20:48:46.400Z,101384.97
2023-05-21T20:50:47.831Z,101385.00
2023-05-21T20:52:49.610Z,101386.88
2023-05-21T20:54:52.152Z,101381.22
2023-05-21T20:56:53.600Z,101368.19
2023-05-21T20:58:55.016Z,101383.75
2023-05-21T21:00:56.467Z,101385.75
2023-05-21T21:02:58.071Z,101385.28
2023-05-21T21:04:59.834Z,101359.03
2023-05-21T21:07:01.373Z,101372.41
2023-05-21T21:09:02.820Z,101378.44
2023-05-21T21:11:04.362Z,101383.28
2023-05-21T21:13:06.168Z,101367.72
2023-05-21T21:15:08.468Z,101371.06
2023-05-21T21:17:09.978Z,101377.06
2023-05-21T21:19:11.520Z,101364.50
2023-05-21T21:21:13.127Z,101375.72
2023-05-21T21:23:14.681Z,101371.31
2023-05-21T21:25:16.795Z,101380.63
2023-05-21T21:27:18.254Z,101371.56
2023-05-21T21:29:19.687Z,101383.94
2023-05-21T21:31:21.238Z,101378.72
2023-05-21T21:33:22.715Z,101375.34
2023-05-21T21:35:24.229Z,101376.81
2023-05-21T21:37:25.988Z,101383.81
2023-05-21T21:39:27.462Z,101385.47
2023-05-21T21:41:29.244Z,101345.94
2023-05-21T21:43:30.801Z,101361.81
2023-05-21T21:45:32.301Z,101376.50
2023-05-21T21:47:33.838Z,101372.00
2023-05-21T21:49:35.428Z,101384.69
2023-05-21T21:51:37.034Z,101384.34
2023-05-21T21:53:38.707Z,101361.88
2023-05-21T21:55:40.238Z,101376.22
2023-05-21T21:57:41.686Z,101392.44
2023-05-21T21:59:43.192Z,101388.88
2023-05-21T22:01:44.779Z,101384.09
2023-05-21T22:03:46.285Z,101392.59
2023-05-21T22:05:47.724Z,101390.03
2023-05-21T22:07:49.320Z,101391.19
2023-05-21T22:09:50.753Z,101386.78
2023-05-21T22:11:52.658Z,101389.28
2023-05-21T22:13:54.410Z,101378.50
2023-05-21T22:15:55.856Z,101398.06
2023-05-21T22:17:57.485Z,101379.41
2023-05-21T22:19:59.049Z,101401.66
2023-05-21T22:22:00.594Z,101402.78
2023-05-21T22:24:02.032Z,101402.25
2023-05-21T22:26:03.681Z,101394.44
2023-05-21T22:28:05.333Z,101395.94
2023-05-21T22:30:08.450Z,101383.81
2023-05-21T22:32:10.195Z,101373.09
2023-05-21T22:34:11.822Z,101385.28
2023-05-21T22:36:13.335Z,101397.69
2023-05-21T22:38:14.949Z,101393.56
2023-05-21T22:40:16.575Z,101378.19
2023-05-21T22:42:18.495Z,101388.53
2023-05-21T22:44:20.051Z,101386.78
2023-05-21T22:46:21.519Z,101378.69
2023-05-21T22:48:23.033Z,101387.66
2023-05-21T22:50:24.567Z,101377.69
2023-05-21T22:52:26.171Z,101363.59
2023-05-21T22:54:27.687Z,101372.81
2023-05-21T22:56:29.341Z,101387.88
2023-05-21T22:58:30.877Z,101385.22
2023-05-21T23:00:32.698Z,101378.06
2023-05-21T23:02:34.509Z,101380.88
2023-05-21T23:04:44.025Z,101389.69
2023-05-21T23:06:46.151Z,101381.84
2023-05-21T23:08:47.796Z,101382.03
2023-05-21T23:10:49.337Z,101380.09
2023-05-21T23:12:50.936Z,101378.09
2023-05-21T23:14:52.515Z,101378.84
2023-05-21T23:16:54.675Z,101376.63
2023-05-21T23:18:56.453Z,101368.97
2023-05-21T23:20:58.527Z,101385.47